Time,TemperatureF,DewpointF,PressureIn,WindDirection,WindDirectionDegrees,WindSpeedMPH,WindSpeedGustMPH,Humidity,HourlyPrecipIn,Conditions,Clouds,dailyrainin,SoftwareType,DateUTC
2013-02-22 00:00:00,23.2,14.2,30.36,WNW,292,0.0,1.0,68,0.00,,,-99.99,WeatherLink 5.4,2013-02-22 05:00:00,
2013-02-22 00:15:00,22.5,14.8,30.33,North,0,1.0,6.0,72,0.00,,,-99.99,WeatherLink 5.4,2013-02-22 05:15:00,
2013-02-22 00:30:00,22.4,15.1,30.35,ENE,67,2.0,6.0,73,0.00,,,-99.99,WeatherLink 5.4,2013-02-22 05:30:00,
2013-02-22 00:35:00,22.4,15.1,30.35,ENE,67,2.0,6.0,73,0.00,,,-99.99,WeatherLink 5.4,2013-02-22 05:35:00,
2013-02-22 00:45:00,22.5,14.8,30.36,North,-999,0.0,0.0,72,0.00,,,-99.99,WeatherLink 5.4,2013-02-22 05:45:00,
2013-02-22 00:50:00,22.5,14.8,30.36,North,-999,0.0,0.0,72,0.00,,,-99.99,WeatherLink 5.4,2013-02-22 05:50:00,
2013-02-22 01:00:00,22.5,15.1,30.37,ENE,67,0.0,2.0,73,0.00,,,-99.99,WeatherLink 5.4,2013-02-22 06:00:00,
2013-02-22 01:05:00,22.5,15.1,30.37,ENE,67,0.0,2.0,73,0.00,,,-99.99,WeatherLink 5.4,2013-02-22 06:05:00,
2013-02-22 01:15:00,22.4,15.4,30.35,North,-999,0.0,0.0,74,0.00,,,-99.99,WeatherLink 5.4,2013-02-22 06:15:00,
2013-02-22 01:20:00,22.4,15.4,30.35,North,-999,0.0,0.0,74,0.00,,,-99.99,WeatherLink 5.4,2013-02-22 06:20:00,
2013-02-22 01:30:00,22.5,15.5,30.34,ENE,67,1.0,3.0,74,0.00,,,-99.99,WeatherLink 5.4,2013-02-22 06:30:00,
2013-02-22 01:45:00,22.5,15.5,30.34,NE,45,0.0,2.0,74,0.00,,,-99.99,WeatherLink 5.4,2013-02-22 06:45:00,
2013-02-22 01:50:00,22.5,15.5,30.34,NE,45,0.0,2.0,74,0.00,,,-99.99,WeatherLink 5.4,2013-02-22 06:50:00,
2013-02-22 02:00:00,23.2,15.2,30.34,NNE,22,1.0,5.0,71,0.00,,,-99.99,WeatherLink 5.4,2013-02-22 07:00:00,
2013-02-22 02:15:00,23.6,15.6,30.35,NW,315,0.0,2.0,71,0.00,,,-99.99,WeatherLink 5.4,2013-02-22 07:15:00,
2013-02-22 02:30:00,23.9,15.9,30.37,West,270,2.0,5.0,71,0.00,,,-99.99,WeatherLink 5.4,2013-02-22 07:30:00,
2013-02-22 02:35:00,23.9,15.9,30.37,West,270,2.0,5.0,71,0.00,,,-99.99,WeatherLink 5.4,2013-02-22 07:35:00,
2013-02-22 02:45:00,24.2,16.1,30.38,West,270,0.0,3.0,71,0.00,,,-99.99,WeatherLink 5.4,2013-02-22 07:45:00,
2013-02-22 03:00:00,24.4,16.0,30.37,North,-999,0.0,0.0,70,0.00,,,-99.99,WeatherLink 5.4,2013-02-22 08:00:00,
2013-02-22 03:15:00,24.4,16.0,30.38,West,270,0.0,1.0,70,0.00,,,-99.99,WeatherLink 5.4,2013-02-22 08:15:00,
2013-02-22 03:30:00,24.4,16.7,30.39,North,-999,0.0,0.0,72,0.00,,,-99.99,WeatherLink 5.4,2013-02-22 08:30:00,
2013-02-22 03:35:00,24.4,16.7,30.39,North,-999,0.0,0.0,72,0.00,,,-99.99,WeatherLink 5.4,2013-02-22 08:35:00,
2013-02-22 03:45:00,24.4,17.0,30.40,West,270,0.0,1.0,73,0.00,,,-99.99,WeatherLink 5.4,2013-02-22 08:45:00,
2013-02-22 04:00:00,24.5,17.1,30.41,South,180,0.0,3.0,73,0.00,,,-99.99,WeatherLink 5.4,2013-02-22 09:00:00,
2013-02-22 04:05:00,24.5,17.1,30.41,South,180,0.0,3.0,73,0.00,,,-99.99,WeatherLink 5.4,2013-02-22 09:05:00,
2013-02-22 04:15:00,24.5,16.4,30.38,SSE,157,1.0,3.0,71,0.00,,,-99.99,WeatherLink 5.4,2013-02-22 09:15:00,
2013-02-22 04:30:00,24.5,16.4,30.39,SSE,157,0.0,6.0,71,0.00,,,-99.99,WeatherLink 5.4,2013-02-22 09:30:00,
2013-02-22 04:45:00,24.5,16.4,30.38,South,180,0.0,3.0,71,0.00,,,-99.99,WeatherLink 5.4,2013-02-22 09:45:00,
2013-02-22 05:00:00,24.7,16.3,30.37,South,180,0.0,2.0,70,0.00,,,-99.99,WeatherLink 5.4,2013-02-22 10:00:00,
2013-02-22 05:05:00,24.7,16.3,30.37,South,180,0.0,2.0,70,0.00,,,-99.99,WeatherLink 5.4,2013-02-22 10:05:00,
2013-02-22 05:15:00,24.7,16.6,30.37,North,-999,0.0,0.0,71,0.00,,,-99.99,WeatherLink 5.4,2013-02-22 10:15:00,
2013-02-22 05:30:00,24.7,16.6,30.38,North,-999,0.0,0.0,71,0.00,,,-99.99,WeatherLink 5.4,2013-02-22 10:30:00,
2013-02-22 05:35:00,24.7,16.6,30.38,North,-999,0.0,0.0,71,0.00,,,-99.99,WeatherLink 5.4,2013-02-22 10:35:00,
2013-02-22 05:45:00,24.7,17.3,30.37,ESE,112,0.0,2.0,73,0.00,,,-99.99,WeatherLink 5.4,2013-02-22 10:45:00,
2013-02-22 06:00:00,24.7,17.0,30.37,North,-999,0.0,0.0,72,0.00,,,-99.99,WeatherLink 5.4,2013-02-22 11:00:00,
2013-02-22 06:05:00,24.7,17.0,30.37,North,-999,0.0,0.0,72,0.00,,,-99.99,WeatherLink 5.4,2013-02-22 11:05:00,
2013-02-22 06:15:00,24.7,17.0,30.38,North,-999,0.0,0.0,72,0.00,,,-99.99,WeatherLink 5.4,2013-02-22 11:15:00,
2013-02-22 06:30:00,24.8,17.4,30.37,East,90,0.0,1.0,73,0.00,,,-99.99,WeatherLink 5.4,2013-02-22 11:30:00,
2013-02-22 06:35:00,24.8,17.4,30.37,East,90,0.0,1.0,73,0.00,,,-99.99,WeatherLink 5.4,2013-02-22 11:35:00,
2013-02-22 06:45:00,25.0,17.6,30.38,East,90,0.0,2.0,73,0.00,,,-99.99,WeatherLink 5.4,2013-02-22 11:45:00,
2013-02-22 07:00:00,25.1,17.3,30.40,East,90,0.0,2.0,72,0.00,,,-99.99,WeatherLink 5.4,2013-02-22 12:00:00,
2013-02-22 07:05:00,25.1,17.3,30.40,East,90,0.0,2.0,72,0.00,,,-99.99,WeatherLink 5.4,2013-02-22 12:05:00,
2013-02-22 07:15:00,25.4,17.6,30.39,ENE,67,0.0,3.0,72,0.00,,,-99.99,WeatherLink 5.4,2013-02-22 12:15:00,
2013-02-22 07:30:00,25.6,17.5,30.39,North,-999,0.0,0.0,71,0.00,,,-99.99,WeatherLink 5.4,2013-02-22 12:30:00,
2013-02-22 07:35:00,25.6,17.5,30.39,North,-999,0.0,0.0,71,0.00,,,-99.99,WeatherLink 5.4,2013-02-22 12:35:00,
2013-02-22 07:45:00,25.7,17.9,30.39,ENE,67,0.0,2.0,72,0.00,,,-99.99,WeatherLink 5.4,2013-02-22 12:45:00,
2013-02-22 07:50:00,25.7,17.9,30.39,ENE,67,0.0,2.0,72,0.00,,,-99.99,WeatherLink 5.4,2013-02-22 12:50:00,
2013-02-22 08:00:00,26.3,17.8,30.38,ENE,67,0.0,3.0,70,0.00,,,-99.99,WeatherLink 5.4,2013-02-22 13:00:00,
2013-02-22 08:15:00,26.9,17.7,30.36,ENE,67,1.0,3.0,68,0.00,,,-99.99,WeatherLink 5.4,2013-02-22 13:15:00,
2013-02-22 08:20:00,26.9,17.7,30.36,ENE,67,1.0,3.0,68,0.00,,,-99.99,WeatherLink 5.4,2013-02-22 13:20:00,
2013-02-22 08:30:00,27.3,17.8,30.36,ENE,67,0.0,3.0,67,0.00,,,-99.99,WeatherLink 5.4,2013-02-22 13:30:00,
2013-02-22 08:35:00,27.3,17.8,30.36,ENE,67,0.0,3.0,67,0.00,,,-99.99,WeatherLink 5.4,2013-02-22 13:35:00,
2013-02-22 08:45:00,28.4,17.4,30.36,ENE,67,1.0,6.0,63,0.00,,,-99.99,WeatherLink 5.4,2013-02-22 13:45:00,
2013-02-22 09:00:00,29.4,17.2,30.35,ESE,112,3.0,11.0,60,0.00,,,-99.99,WeatherLink 5.4,2013-02-22 14:00:00,
2013-02-22 09:15:00,29.5,17.3,30.33,ESE,112,5.0,14.0,60,0.00,,,-99.99,WeatherLink 5.4,2013-02-22 14:15:00,
2013-02-22 09:30:00,30.0,17.4,30.32,ESE,112,3.0,11.0,59,0.00,,,-99.99,WeatherLink 5.4,2013-02-22 14:30:00,
2013-02-22 09:35:00,30.0,17.4,30.32,ESE,112,3.0,11.0,59,0.00,,,-99.99,WeatherLink 5.4,2013-02-22 14:35:00,
2013-02-22 09:45:00,30.3,17.7,30.32,ENE,67,2.0,10.0,59,0.00,,,-99.99,WeatherLink 5.4,2013-02-22 14:45:00,
2013-02-22 09:50:00,30.3,17.7,30.32,ENE,67,2.0,10.0,59,0.00,,,-99.99,WeatherLink 5.4,2013-02-22 14:50:00,
2013-02-22 10:00:00,31.0,17.1,30.33,ESE,112,1.0,7.0,56,0.00,,,-99.99,WeatherLink 5.4,2013-02-22 15:00:00,
2013-02-22 10:15:00,31.8,17.0,30.33,SSE,157,1.0,7.0,54,0.00,,,-99.99,WeatherLink 5.4,2013-02-22 15:15:00,
2013-02-22 10:20:00,31.8,17.0,30.33,SSE,157,1.0,7.0,54,0.00,,,-99.99,WeatherLink 5.4,2013-02-22 15:20:00,
2013-02-22 10:30:00,32.1,18.2,30.32,SE,135,1.0,5.0,56,0.00,,,-99.99,WeatherLink 5.4,2013-02-22 15:30:00,
2013-02-22 10:45:00,31.9,18.0,30.33,East,90,2.0,6.0,56,0.00,,,-99.99,WeatherLink 5.4,2013-02-22 15:45:00,
2013-02-22 11:00:00,31.8,18.3,30.33,ENE,67,1.0,4.0,57,0.00,,,-99.99,WeatherLink 5.4,2013-02-22 16:00:00,
2013-02-22 11:15:00,31.9,18.0,30.34,East,90,0.0,5.0,56,0.00,,,-99.99,WeatherLink 5.4,2013-02-22 16:15:00,
2013-02-22 11:20:00,31.9,18.0,30.34,East,90,0.0,5.0,56,0.00,,,-99.99,WeatherLink 5.4,2013-02-22 16:20:00,
2013-02-22 11:30:00,32.2,18.2,30.35,ENE,67,1.0,3.0,56,0.00,,,-99.99,WeatherLink 5.4,2013-02-22 16:30:00,
2013-02-22 11:45:00,32.4,18.8,30.34,ENE,67,1.0,6.0,57,0.00,,,-99.99,WeatherLink 5.4,2013-02-22 16:45:00,
2013-02-22 11:50:00,32.4,18.8,30.34,ENE,67,1.0,6.0,57,0.00,,,-99.99,WeatherLink 5.4,2013-02-22 16:50:00,
2013-02-22 12:00:00,32.2,19.9,30.34,SSE,157,1.0,6.0,60,0.00,,,-99.99,WeatherLink 5.4,2013-02-22 17:00:00,
2013-02-22 12:15:00,31.6,20.8,30.34,South,180,1.0,6.0,64,0.00,,,-99.99,WeatherLink 5.4,2013-02-22 17:15:00,
2013-02-22 12:30:00,31.0,22.0,30.33,South,180,0.0,5.0,69,0.00,,,-99.99,WeatherLink 5.4,2013-02-22 17:30:00,
2013-02-22 12:45:00,30.7,22.7,30.33,South,180,0.0,3.0,72,0.00,,,-99.99,WeatherLink 5.4,2013-02-22 17:45:00,
2013-02-22 12:50:00,30.7,22.7,30.33,South,180,0.0,3.0,72,0.00,,,-99.99,WeatherLink 5.4,2013-02-22 17:50:00,
2013-02-22 13:00:00,30.4,22.8,30.32,South,180,0.0,3.0,73,0.00,,,-99.99,WeatherLink 5.4,2013-02-22 18:00:00,
2013-02-22 13:15:00,30.1,23.8,30.32,South,180,0.0,2.0,77,0.01,,,-99.99,WeatherLink 5.4,2013-02-22 18:15:00,
2013-02-22 13:20:00,30.1,23.8,30.32,South,180,0.0,2.0,77,0.01,,,-99.99,WeatherLink 5.4,2013-02-22 18:20:00,
2013-02-22 13:30:00,30.3,24.3,30.30,South,180,0.0,1.0,78,0.01,,,-99.99,WeatherLink 5.4,2013-02-22 18:30:00,
2013-02-22 13:45:00,30.3,24.6,30.31,South,180,0.0,2.0,79,0.01,,,-99.99,WeatherLink 5.4,2013-02-22 18:45:00,
2013-02-22 13:50:00,30.3,24.6,30.31,South,180,0.0,2.0,79,0.01,,,-99.99,WeatherLink 5.4,2013-02-22 18:50:00,
2013-02-22 14:00:00,30.3,24.9,30.30,South,180,0.0,2.0,80,0.01,,,-99.99,WeatherLink 5.4,2013-02-22 19:00:00,
2013-02-22 14:05:00,30.3,24.9,30.30,South,180,0.0,2.0,80,0.01,,,-99.99,WeatherLink 5.4,2013-02-22 19:05:00,
2013-02-22 14:15:00,30.1,24.7,30.30,South,180,0.0,2.0,80,0.00,,,-99.99,WeatherLink 5.4,2013-02-22 19:15:00,
2013-02-22 14:20:00,30.1,24.7,30.30,South,180,0.0,2.0,80,0.00,,,-99.99,WeatherLink 5.4,2013-02-22 19:20:00,
2013-02-22 14:30:00,30.1,24.7,30.29,South,180,0.0,2.0,80,0.00,,,-99.99,WeatherLink 5.4,2013-02-22 19:30:00,
2013-02-22 14:45:00,30.1,24.7,30.30,South,180,0.0,2.0,80,0.00,,,-99.99,WeatherLink 5.4,2013-02-22 19:45:00,
2013-02-22 15:00:00,30.1,25.0,30.29,South,180,0.0,2.0,81,0.00,,,-99.99,WeatherLink 5.4,2013-02-22 20:00:00,
2013-02-22 15:05:00,30.1,25.0,30.29,South,180,0.0,2.0,81,0.00,,,-99.99,WeatherLink 5.4,2013-02-22 20:05:00,
2013-02-22 15:15:00,30.1,25.0,30.28,South,180,0.0,2.0,81,0.00,,,-99.99,WeatherLink 5.4,2013-02-22 20:15:00,
2013-02-22 15:20:00,30.1,25.0,30.28,South,180,0.0,2.0,81,0.00,,,-99.99,WeatherLink 5.4,2013-02-22 20:20:00,
2013-02-22 15:30:00,30.3,25.2,30.28,South,180,1.0,6.0,81,0.00,,,-99.99,WeatherLink 5.4,2013-02-22 20:30:00,
2013-02-22 15:35:00,30.3,25.2,30.28,South,180,1.0,6.0,81,0.00,,,-99.99,WeatherLink 5.4,2013-02-22 20:35:00,
2013-02-22 15:45:00,30.3,24.9,30.28,SSE,157,1.0,5.0,80,0.00,,,-99.99,WeatherLink 5.4,2013-02-22 20:45:00,
2013-02-22 16:00:00,30.4,25.0,30.28,SSE,157,1.0,5.0,80,0.00,,,-99.99,WeatherLink 5.4,2013-02-22 21:00:00,
2013-02-22 16:15:00,30.6,25.2,30.27,SE,135,0.0,2.0,80,0.00,,,-99.99,WeatherLink 5.4,2013-02-22 21:15:00,
2013-02-22 16:30:00,30.7,25.3,30.26,SE,135,0.0,3.0,80,0.00,,,-99.99,WeatherLink 5.4,2013-02-22 21:30:00,
2013-02-22 16:35:00,30.7,25.3,30.26,SE,135,0.0,3.0,80,0.00,,,-99.99,WeatherLink 5.4,2013-02-22 21:35:00,
2013-02-22 16:45:00,30.9,25.5,30.26,SE,135,0.0,5.0,80,0.00,,,-99.99,WeatherLink 5.4,2013-02-22 21:45:00,
2013-02-22 17:00:00,31.0,25.6,30.26,SSE,157,0.0,5.0,80,0.00,,,-99.99,WeatherLink 5.4,2013-02-22 22:00:00,
2013-02-22 17:05:00,31.0,25.6,30.26,SSE,157,0.0,5.0,80,0.00,,,-99.99,WeatherLink 5.4,2013-02-22 22:05:00,
2013-02-22 17:15:00,31.0,25.2,30.26,SSE,157,0.0,3.0,79,0.00,,,-99.99,WeatherLink 5.4,2013-02-22 22:15:00,
2013-02-22 17:30:00,31.0,24.9,30.26,South,180,1.0,7.0,78,0.00,,,-99.99,WeatherLink 5.4,2013-02-22 22:30:00,
2013-02-22 17:45:00,31.0,25.2,30.26,South,180,0.0,5.0,79,0.00,,,-99.99,WeatherLink 5.4,2013-02-22 22:45:00,
2013-02-22 17:50:00,31.0,25.2,30.26,South,180,0.0,5.0,79,0.00,,,-99.99,WeatherLink 5.4,2013-02-22 22:50:00,
2013-02-22 18:00:00,31.0,25.2,30.26,South,180,0.0,1.0,79,0.00,,,-99.99,WeatherLink 5.4,2013-02-22 23:00:00,
2013-02-22 18:05:00,31.0,25.2,30.26,South,180,0.0,1.0,79,0.00,,,-99.99,WeatherLink 5.4,2013-02-22 23:05:00,
2013-02-22 18:15:00,30.9,25.2,30.26,North,-999,0.0,0.0,79,0.00,,,-99.99,WeatherLink 5.4,2013-02-22 23:15:00,
2013-02-22 18:30:00,30.9,25.2,30.26,North,-999,0.0,0.0,79,0.00,,,-99.99,WeatherLink 5.4,2013-02-22 23:30:00,
2013-02-22 18:45:00,30.9,25.5,30.26,North,-999,0.0,0.0,80,0.00,,,-99.99,WeatherLink 5.4,2013-02-22 23:45:00,
2013-02-22 18:50:00,30.9,25.5,30.26,North,-999,0.0,0.0,80,0.00,,,-99.99,WeatherLink 5.4,2013-02-22 23:50:00,
2013-02-22 19:00:00,30.9,25.8,30.25,South,180,0.0,1.0,81,0.00,,,-99.99,WeatherLink 5.4,2013-02-23 00:00:00,
2013-02-22 19:15:00,30.9,26.1,30.25,South,180,0.0,5.0,82,0.00,,,-99.99,WeatherLink 5.4,2013-02-23 00:15:00,
2013-02-22 19:30:00,30.9,25.5,30.25,SE,135,1.0,7.0,80,0.00,,,-99.99,WeatherLink 5.4,2013-02-23 00:30:00,
2013-02-22 19:35:00,30.9,25.5,30.25,SE,135,1.0,7.0,80,0.00,,,-99.99,WeatherLink 5.4,2013-02-23 00:35:00,
2013-02-22 19:45:00,30.9,25.2,30.25,SE,135,0.0,2.0,79,0.00,,,-99.99,WeatherLink 5.4,2013-02-23 00:45:00,
2013-02-22 20:00:00,31.0,25.2,30.25,SE,135,0.0,2.0,79,0.00,,,-99.99,WeatherLink 5.4,2013-02-23 01:00:00,
2013-02-22 20:15:00,31.0,24.9,30.24,SE,135,0.0,6.0,78,0.00,,,-99.99,WeatherLink 5.4,2013-02-23 01:15:00,
2013-02-22 20:30:00,31.0,24.9,30.24,SSE,157,1.0,6.0,78,0.00,,,-99.99,WeatherLink 5.4,2013-02-23 01:30:00,
2013-02-22 20:45:00,31.0,25.2,30.25,SSE,157,0.0,2.0,79,0.00,,,-99.99,WeatherLink 5.4,2013-02-23 01:45:00,
2013-02-22 20:50:00,31.0,25.2,30.25,SSE,157,0.0,2.0,79,0.00,,,-99.99,WeatherLink 5.4,2013-02-23 01:50:00,
2013-02-22 21:00:00,31.0,25.2,30.24,SSE,157,1.0,6.0,79,0.00,,,-99.99,WeatherLink 5.4,2013-02-23 02:00:00,
2013-02-22 21:15:00,31.2,25.4,30.24,SSE,157,1.0,7.0,79,0.00,,,-99.99,WeatherLink 5.4,2013-02-23 02:15:00,
2013-02-22 21:20:00,31.2,25.4,30.24,SSE,157,1.0,7.0,79,0.00,,,-99.99,WeatherLink 5.4,2013-02-23 02:20:00,
2013-02-22 21:30:00,31.2,25.4,30.23,SE,135,0.0,3.0,79,0.00,,,-99.99,WeatherLink 5.4,2013-02-23 02:30:00,
2013-02-22 21:35:00,31.2,25.4,30.23,SE,135,0.0,3.0,79,0.00,,,-99.99,WeatherLink 5.4,2013-02-23 02:35:00,
2013-02-22 21:45:00,31.3,25.2,30.23,SE,135,1.0,6.0,78,0.00,,,-99.99,WeatherLink 5.4,2013-02-23 02:45:00,
2013-02-22 22:00:00,31.3,25.5,30.23,SE,135,1.0,7.0,79,0.00,,,-99.99,WeatherLink 5.4,2013-02-23 03:00:00,
2013-02-22 22:15:00,31.3,25.5,30.23,SE,135,0.0,7.0,79,0.00,,,-99.99,WeatherLink 5.4,2013-02-23 03:15:00,
2013-02-22 22:30:00,31.5,25.7,30.22,SE,135,0.0,6.0,79,0.00,,,-99.99,WeatherLink 5.4,2013-02-23 03:30:00,
2013-02-22 22:45:00,31.5,25.7,30.22,SE,135,0.0,5.0,79,0.00,,,-99.99,WeatherLink 5.4,2013-02-23 03:45:00,
2013-02-22 23:00:00,31.5,25.7,30.23,SSE,157,1.0,7.0,79,0.00,,,-99.99,WeatherLink 5.4,2013-02-23 04:00:00,
2013-02-22 23:05:00,31.5,25.7,30.23,SSE,157,1.0,7.0,79,0.00,,,-99.99,WeatherLink 5.4,2013-02-23 04:05:00,
2013-02-22 23:15:00,31.6,25.8,30.23,SSE,157,2.0,8.0,79,0.00,,,-99.99,WeatherLink 5.4,2013-02-23 04:15:00,
2013-02-22 23:30:00,31.6,25.8,30.22,SSE,157,0.0,5.0,79,0.00,,,-99.99,WeatherLink 5.4,2013-02-23 04:30:00,
2013-02-22 23:45:00,31.6,26.1,30.21,SSE,157,0.0,6.0,80,0.00,,,-99.99,WeatherLink 5.4,2013-02-23 04:45:00,